Time;durP1;ratioP1;P1;durP2;ratioP2;P2;SDS_P1;SDS_P2;PMS_P1;PMS_P2;Temp;Humidity;BMP_temperature;BMP_pressure;BME280_temperature;BME280_humidity;BME280_pressure;Samples;Min_cycle;Max_cycle;Signal;HPM_P1;HPM_P2
2021/12/18 00:01:50;;;;;;;31.20;13.13;;;;;;;16.09;45.82;103309.53;4418370;32;20370;-70
2021/12/18 00:04:16;;;;;;;31.00;13.73;;;;;;;16.01;45.89;103310.81;4417123;32;20427;-70
2021/12/18 00:06:42;;;;;;;35.70;14.65;;;;;;;15.95;45.69;103310.41;4418065;32;20070;-70
2021/12/18 00:09:08;;;;;;;33.72;14.07;;;;;;;15.81;45.74;103296.31;4417178;32;20439;-70
2021/12/18 00:11:34;;;;;;;33.63;14.45;;;;;;;15.79;46.26;103301.56;4417710;32;20050;-70
2021/12/18 00:14:01;;;;;;;30.20;13.80;;;;;;;15.90;46.31;103308.03;4418028;32;20073;-70
2021/12/18 00:16:27;;;;;;;31.23;13.77;;;;;;;15.81;46.58;103299.94;4419298;32;20416;-70
2021/12/18 00:18:56;;;;;;;29.95;13.85;;;;;;;15.76;46.16;103308.06;4414275;32;20124;-70
2021/12/18 00:21:22;;;;;;;31.42;14.60;;;;;;;15.74;46.63;103297.13;4416619;32;20034;-70
2021/12/18 00:23:48;;;;;;;33.42;14.05;;;;;;;15.79;46.56;103295.91;4417970;32;20061;-70
2021/12/18 00:26:14;;;;;;;29.67;13.32;;;;;;;15.80;46.67;103300.34;4417380;32;20057;-70
2021/12/18 00:28:40;;;;;;;32.97;13.85;;;;;;;15.78;46.61;103291.44;4416852;32;20130;-70
2021/12/18 00:31:06;;;;;;;34.40;14.60;;;;;;;15.81;46.58;103293.47;4414418;32;20082;-70
2021/12/18 00:33:32;;;;;;;34.17;15.25;;;;;;;15.68;46.79;103278.91;4417989;32;20074;-70
2021/12/18 00:35:58;;;;;;;35.97;16.02;;;;;;;15.74;47.13;103282.94;4413005;32;20097;-70
2021/12/18 00:38:29;;;;;;;31.55;14.35;;;;;;;15.61;47.23;103284.63;4420151;32;20546;-70
2021/12/18 00:41:15;;;;;;;31.98;14.75;;;;;;;15.66;46.85;103289.88;4418011;32;20494;-70
2021/12/18 00:44:13;;;;;;;33.22;14.82;;;;;;;15.95;46.95;103279.97;4423344;32;20034;-70
2021/12/18 00:46:31;;;;;;;36.67;15.80;;;;;;;15.99;46.68;103288.50;4419903;32;20406;-70
2021/12/18 00:48:57;;;;;;;32.88;15.13;;;;;;;16.03;46.32;103289.28;4423007;32;21142;-70
2021/12/18 00:51:23;;;;;;;31.67;14.23;;;;;;;15.72;46.91;103291.06;4419381;32;20026;-70
2021/12/18 00:53:49;;;;;;;38.65;15.05;;;;;;;15.71;46.92;103285.81;4423778;32;20204;-70
2021/12/18 00:56:15;;;;;;;36.13;15.13;;;;;;;15.79;46.88;103287.37;4422955;32;20198;-70
2021/12/18 00:58:41;;;;;;;32.85;15.20;;;;;;;15.88;46.62;103279.22;4419640;32;20457;-70
2021/12/18 01:01:09;;;;;;;33.90;14.57;;;;;;;15.95;46.42;103282.00;4417846;32;20037;-70
2021/12/18 01:03:37;;;;;;;38.38;16.17;;;;;;;15.90;46.75;103273.94;4420876;32;20403;-70
2021/12/18 01:06:04;;;;;;;29.75;14.18;;;;;;;15.89;46.19;103269.47;4421340;32;20453;-70
2021/12/18 01:08:30;;;;;;;30.75;14.85;;;;;;;16.03;46.56;103269.38;4417998;32;20046;-70
2021/12/18 01:13:36;;;;;;;33.40;14.82;;;;;;;16.35;46.39;103269.19;3982211;32;15073002;-70
2021/12/18 01:16:12;;;;;;;32.70;14.70;;;;;;;16.35;46.39;103269.19;4435900;32;20064;-70
2021/12/18 01:24:09;;;;;;;34.10;15.00;;;;;;;15.82;46.99;103267.50;4431647;32;20136;-70
2021/12/18 01:26:35;;;;;;;32.97;14.50;;;;;;;15.85;47.20;103268.69;4432183;32;20537;-70
2021/12/18 01:29:01;;;;;;;32.22;14.77;;;;;;;15.93;46.82;103261.75;4431569;32;20034;-70
2021/12/18 01:31:28;;;;;;;37.50;15.68;;;;;;;16.01;46.86;103262.50;4429197;32;20095;-70
2021/12/18 01:33:53;;;;;;;37.10;15.57;;;;;;;16.08;46.77;103263.28;4431112;32;20358;-70
2021/12/18 01:36:20;;;;;;;33.85;16.02;;;;;;;16.02;46.87;103248.69;4434911;32;20430;-70
2021/12/18 01:38:46;;;;;;;36.53;15.70;;;;;;;16.21;46.63;103250.19;4433901;32;20089;-70
2021/12/18 01:41:14;;;;;;;36.60;16.62;;;;;;;16.02;46.69;103249.91;4432900;32;20044;-70
2021/12/18 01:46:50;;;;;;;40.40;16.85;;;;;;;15.99;46.98;103255.19;4434250;32;20037;-70
2021/12/18 01:54:37;;;;;;;38.65;16.48;;;;;;;16.43;46.13;103251.66;3982927;32;15021438;-70
2021/12/18 01:57:03;;;;;;;38.05;17.05;;;;;;;16.23;46.49;103247.72;4432830;32;20038;-70
2021/12/18 01:59:47;;;;;;;37.30;16.58;;;;;;;16.19;46.05;103237.59;4432391;32;20029;-70
2021/12/18 02:02:14;;;;;;;49.70;18.98;;;;;;;16.53;45.46;103238.56;4434110;32;20169;-70
2021/12/18 02:04:40;;;;;;;38.05;16.98;;;;;;;16.31;46.32;103242.78;4436126;32;20107;-70
2021/12/18 02:07:07;;;;;;;46.92;18.42;;;;;;;16.20;46.25;103237.19;4435658;32;20123;-70
2021/12/18 02:10:10;;;;;;;36.78;16.15;;;;;;;16.25;46.32;103242.44;4435692;32;20037;-70
2021/12/18 02:12:26;;;;;;;43.72;17.30;;;;;;;16.43;46.30;103240.28;4433952;32;20437;-70
2021/12/18 02:20:36;;;;;;;44.33;18.55;;;;;;;16.24;46.19;103240.00;4430846;32;20157;-70
2021/12/18 02:23:03;;;;;;;47.28;18.20;;;;;;;16.23;46.22;103244.88;4433064;32;20029;-70
2021/12/18 02:25:31;;;;;;;46.60;18.67;;;;;;;16.34;46.24;103244.81;4434516;32;20187;-70
2021/12/18 02:27:57;;;;;;;42.92;17.77;;;;;;;16.32;46.49;103235.91;4432623;32;20091;-70
2021/12/18 02:30:24;;;;;;;41.25;17.10;;;;;;;16.40;45.80;103246.78;4435011;32;20034;-70
2021/12/18 02:32:51;;;;;;;45.03;17.67;;;;;;;16.40;45.99;103246.78;4432206;32;20049;-70
2021/12/18 02:35:38;;;;;;;48.75;18.20;;;;;;;16.46;45.97;103236.63;4434068;32;20101;-70
2021/12/18 02:43:31;;;;;;;41.10;18.40;;;;;;;16.20;46.66;103236.41;4438351;32;20096;-70
2021/12/18 02:45:59;;;;;;;43.67;18.95;;;;;;;16.31;46.48;103239.94;4438354;32;20056;-70
2021/12/18 02:48:28;;;;;;;48.17;19.25;;;;;;;16.19;46.73;103238.41;4432333;32;20069;-70
2021/12/18 02:50:56;;;;;;;53.38;20.65;;;;;;;16.40;46.31;103243.13;4431165;32;20073;-70
2021/12/18 02:53:22;;;;;;;56.20;22.67;;;;;;;16.38;45.53;103237.06;4437323;32;20059;-69
2021/12/18 02:55:54;;;;;;;56.80;24.00;;;;;;;16.14;46.26;103240.91;4433080;32;20034;-69
2021/12/18 02:58:20;;;;;;;57.13;24.63;;;;;;;16.49;45.88;103237.81;4434384;32;20064;-69
2021/12/18 03:00:46;;;;;;;55.35;23.95;;;;;;;16.25;46.54;103236.75;4435615;32;20125;-69
2021/12/18 03:03:14;;;;;;;62.28;25.35;;;;;;;16.25;46.12;103241.62;4438796;32;20037;-69
2021/12/18 03:05:49;;;;;;;58.80;23.33;;;;;;;16.29;46.36;103240.37;4437513;32;20078;-69
2021/12/18 03:08:22;;;;;;;48.38;19.15;;;;;;;16.20;46.43;103234.34;4436900;32;20053;-69
2021/12/18 03:24:40;;;;;;;36.67;14.48;;;;;;;16.71;45.34;103234.34;4432932;32;20139;-69
2021/12/18 03:27:08;;;;;;;36.47;15.23;;;;;;;16.22;45.99;103229.06;4432760;32;20069;-69
2021/12/18 03:29:34;;;;;;;40.08;16.10;;;;;;;16.24;45.88;103229.47;4433914;32;20060;-69
2021/12/18 03:31:59;;;;;;;43.72;16.23;;;;;;;16.10;46.31;103229.56;4432584;32;20483;-69
2021/12/18 03:34:25;;;;;;;38.03;15.13;;;;;;;16.00;46.86;103230.44;4432981;32;20068;-69
2021/12/18 03:36:52;;;;;;;39.80;15.50;;;;;;;16.05;47.02;103224.34;4429368;32;20041;-69
2021/12/18 03:39:18;;;;;;;36.90;15.25;;;;;;;16.23;46.26;103232.72;4436747;32;20102;-69
2021/12/18 03:41:44;;;;;;;35.47;14.73;;;;;;;16.15;46.61;103229.13;4433875;32;20129;-69
2021/12/18 03:44:10;;;;;;;40.88;15.98;;;;;;;15.82;46.58;103233.41;4432427;32;20120;-70
2021/12/18 03:46:36;;;;;;;36.63;15.93;;;;;;;15.89;46.79;103224.03;4435184;32;20163;-69
2021/12/18 03:49:02;;;;;;;39.00;15.80;;;;;;;15.89;46.72;103235.38;4434665;32;20155;-69
2021/12/18 03:51:28;;;;;;;38.60;15.20;;;;;;;16.03;46.83;103232.47;4431197;32;20054;-69
2021/12/18 03:53:53;;;;;;;34.60;14.95;;;;;;;16.05;46.76;103232.88;4436054;32;20521;-69
2021/12/18 03:56:19;;;;;;;33.30;15.00;;;;;;;16.08;46.40;103234.88;4434735;32;20498;-69
2021/12/18 03:58:45;;;;;;;33.63;14.18;;;;;;;16.07;46.74;103240.97;4432731;32;20073;-69
2021/12/18 04:01:11;;;;;;;37.55;14.65;;;;;;;16.12;46.28;103229.16;4432119;32;20423;-69
2021/12/18 04:03:37;;;;;;;34.00;14.20;;;;;;;16.11;46.62;103236.87;4432768;32;20107;-69
2021/12/18 04:06:02;;;;;;;38.38;15.50;;;;;;;16.05;46.30;103243.41;4434130;32;20086;-69
2021/12/18 04:08:28;;;;;;;36.25;14.05;;;;;;;15.93;46.77;103239.03;4433230;32;20115;-69
2021/12/18 04:10:54;;;;;;;33.45;13.70;;;;;;;16.10;46.26;103246.59;4433849;32;20446;-69
2021/12/18 04:13:20;;;;;;;34.55;14.60;;;;;;;16.17;46.26;103240.88;4435429;32;20070;-69
2021/12/18 04:15:45;;;;;;;25.65;9.40;;;;;;;16.25;45.86;103233.09;4432823;32;20405;-69
2021/12/18 04:18:11;;;;;;;22.62;9.88;;;;;;;16.14;46.02;103244.53;4432324;32;20022;-70
2021/12/18 04:20:36;;;;;;;24.52;10.25;;;;;;;16.22;45.64;103242.44;4430890;32;20474;-70
2021/12/18 04:23:02;;;;;;;29.85;11.57;;;;;;;16.12;45.64;103240.50;4433091;32;20085;-69
2021/12/18 04:25:28;;;;;;;24.90;11.85;;;;;;;16.20;45.86;103242.09;4435167;32;20077;-69
2021/12/18 04:27:54;;;;;;;27.42;11.48;;;;;;;16.22;45.48;103240.44;4434158;32;20094;-69
2021/12/18 04:30:20;;;;;;;27.80;10.35;;;;;;;16.12;46.08;103246.19;4433584;32;20073;-69
2021/12/18 04:32:46;;;;;;;29.40;11.32;;;;;;;16.05;46.13;103246.25;4423966;32;20064;-69
2021/12/18 04:35:12;;;;;;;18.08;7.82;;;;;;;16.10;45.84;103248.66;4421984;32;20064;-69
2021/12/18 04:37:38;;;;;;;13.38;5.22;;;;;;;15.86;46.24;103253.25;4424466;32;20062;-69
2021/12/18 04:40:05;;;;;;;8.65;3.62;;;;;;;15.77;46.44;103244.38;4419512;32;20399;-69
2021/12/18 04:42:30;;;;;;;5.53;2.90;;;;;;;15.89;46.08;103236.19;4424848;32;20080;-69
2021/12/18 04:44:56;;;;;;;10.30;3.60;;;;;;;15.65;46.37;103242.03;4421818;32;20070;-69
2021/12/18 04:47:22;;;;;;;6.60;3.55;;;;;;;15.69;45.79;103237.97;4420115;32;20100;-69
2021/12/18 04:49:47;;;;;;;6.70;2.70;;;;;;;15.72;45.61;103230.63;4424039;32;20414;-69
2021/12/18 04:52:13;;;;;;;10.07;3.42;;;;;;;15.74;45.77;103242.41;4422630;32;20059;-69
2021/12/18 04:54:38;;;;;;;6.80;3.87;;;;;;;15.79;45.77;103250.47;4426417;32;20063;-69
2021/12/18 04:57:04;;;;;;;8.25;4.55;;;;;;;15.86;45.52;103250.41;4422926;32;20627;-69
2021/12/18 04:59:30;;;;;;;8.13;3.78;;;;;;;15.87;45.30;103247.16;4424342;32;20543;-69
2021/12/18 05:01:56;;;;;;;9.65;4.25;;;;;;;15.89;45.61;103258.09;4422687;32;20073;-69
2021/12/18 05:04:22;;;;;;;7.78;3.65;;;;;;;15.76;46.15;103248.44;4423443;32;20014;-69
2021/12/18 05:06:51;;;;;;;8.77;4.22;;;;;;;15.80;46.29;103252.06;4423133;32;20077;-69
2021/12/18 05:09:17;;;;;;;9.38;3.42;;;;;;;15.78;46.34;103249.63;4426666;32;20121;-69
2021/12/18 05:11:44;;;;;;;12.23;4.60;;;;;;;15.77;46.22;103250.06;4421597;32;20077;-69
2021/12/18 05:14:10;;;;;;;8.57;4.60;;;;;;;16.06;45.96;103243.00;4422448;32;20091;-69
2021/12/18 05:16:37;;;;;;;10.48;4.35;;;;;;;15.92;45.61;103241.06;4424501;32;20086;-69
2021/12/18 05:19:04;;;;;;;9.75;4.50;;;;;;;16.02;45.51;103243.00;4424678;32;20030;-69
2021/12/18 05:21:29;;;;;;;9.57;4.43;;;;;;;16.04;45.48;103244.66;4421173;32;20085;-69
2021/12/18 05:23:55;;;;;;;11.10;4.03;;;;;;;15.89;45.25;103243.91;4423070;32;20097;-69
2021/12/18 05:26:21;;;;;;;10.40;4.10;;;;;;;15.98;45.58;103242.22;4419687;32;20037;-69
2021/12/18 05:28:46;;;;;;;9.07;4.35;;;;;;;15.98;45.40;103252.78;4421417;32;20099;-69
2021/12/18 05:31:16;;;;;;;8.70;3.90;;;;;;;15.99;45.62;103237.38;4423825;32;20037;-69
2021/12/18 05:33:46;;;;;;;7.68;3.58;;;;;;;15.98;45.67;103245.06;4424375;32;20034;-69
2021/12/18 05:36:30;;;;;;;8.73;3.08;;;;;;;16.09;45.20;103241.34;4424755;32;20400;-69
2021/12/18 05:39:03;;;;;;;5.72;2.60;;;;;;;15.98;45.27;103239.38;4424721;32;20061;-69
2021/12/18 05:41:29;;;;;;;7.80;3.97;;;;;;;16.21;44.80;103243.69;4420392;32;20450;-69
2021/12/18 05:43:54;;;;;;;6.37;3.20;;;;;;;15.94;45.49;103244.28;4422604;32;20077;-69
2021/12/18 05:46:20;;;;;;;5.43;2.75;;;;;;;16.05;45.54;103234.88;4425596;32;20122;-69
2021/12/18 05:48:46;;;;;;;5.85;2.42;;;;;;;15.99;45.23;103238.16;4423034;32;20110;-69
2021/12/18 05:51:11;;;;;;;8.07;3.50;;;;;;;15.98;45.15;103238.56;4418390;32;20368;-70
2021/12/18 05:53:37;;;;;;;7.30;3.00;;;;;;;15.99;45.17;103243.84;4421375;32;20045;-69
2021/12/18 05:56:03;;;;;;;5.62;2.90;;;;;;;16.01;45.23;103240.56;4423994;32;20557;-69
2021/12/18 05:58:29;;;;;;;6.80;2.97;;;;;;;16.02;45.37;103242.22;4422414;32;20090;-69
2021/12/18 06:00:54;;;;;;;5.70;2.40;;;;;;;15.99;45.00;103243.03;4421080;32;20155;-69
2021/12/18 06:03:20;;;;;;;6.97;3.12;;;;;;;15.72;45.44;103247.66;4420735;32;20068;-69
2021/12/18 06:05:46;;;;;;;6.97;3.20;;;;;;;15.73;45.22;103240.75;4420269;32;20466;-69
2021/12/18 06:08:14;;;;;;;8.00;3.20;;;;;;;15.83;45.39;103242.72;4416624;32;20129;-69
2021/12/18 06:10:40;;;;;;;6.97;3.50;;;;;;;15.95;45.33;103239.41;4421013;32;20399;-69
2021/12/18 06:13:06;;;;;;;8.15;3.60;;;;;;;16.05;45.07;103249.09;4417231;32;20042;-69
2021/12/18 06:15:32;;;;;;;8.20;3.65;;;;;;;16.06;45.23;103245.00;4422820;32;20025;-69
2021/12/18 06:18:00;;;;;;;7.28;3.58;;;;;;;16.16;45.50;103244.13;4419221;32;20130;-69
2021/12/18 06:20:27;;;;;;;9.95;4.32;;;;;;;16.48;45.42;103254.06;4421275;32;20029;-69
2021/12/18 06:22:54;;;;;;;9.45;4.25;;;;;;;16.44;45.54;103246.81;4419755;32;20103;-69
2021/12/18 06:25:20;;;;;;;10.57;4.75;;;;;;;16.43;45.33;103250.81;4422089;32;20042;-69
2021/12/18 06:27:46;;;;;;;9.70;4.43;;;;;;;16.27;45.40;103245.69;4418987;32;20396;-69
2021/12/18 06:30:14;;;;;;;11.52;5.37;;;;;;;16.29;45.75;103240.37;4422610;32;20030;-69
2021/12/18 06:32:40;;;;;;;13.85;6.20;;;;;;;16.36;45.84;103239.50;4422259;32;20469;-69
2021/12/18 06:35:07;;;;;;;13.32;6.03;;;;;;;16.20;45.91;103237.19;4419818;32;20101;-69
2021/12/18 06:37:33;;;;;;;12.73;6.20;;;;;;;16.40;45.73;103235.41;4420460;32;20069;-69
2021/12/18 06:39:59;;;;;;;15.13;6.37;;;;;;;16.25;46.08;103244.47;4420111;32;20111;-69
2021/12/18 06:42:25;;;;;;;16.05;6.82;;;;;;;16.30;45.86;103239.16;4421589;32;20129;-69
2021/12/18 06:44:53;;;;;;;12.93;6.55;;;;;;;16.09;46.08;103258.38;4424730;32;20041;-69
2021/12/18 06:47:18;;;;;;;14.35;6.95;;;;;;;16.00;46.10;103247.50;4419591;32;20150;-69
2021/12/18 06:49:44;;;;;;;18.02;8.02;;;;;;;16.04;46.50;103251.09;4422263;32;20061;-69
2021/12/18 06:52:10;;;;;;;15.93;6.87;;;;;;;16.11;46.49;103253.09;4420688;32;20136;-69
2021/12/18 06:54:35;;;;;;;16.33;6.93;;;;;;;15.81;46.68;103254.50;4423218;32;20090;-70
2021/12/18 06:57:02;;;;;;;14.05;6.70;;;;;;;15.79;46.65;103253.28;4422885;32;20022;-69
2021/12/18 06:59:28;;;;;;;17.33;7.37;;;;;;;15.91;46.76;103247.97;4420684;32;20511;-69
2021/12/18 07:01:54;;;;;;;14.80;6.80;;;;;;;16.02;46.73;103250.75;4419285;32;20383;-69
2021/12/18 07:04:22;;;;;;;13.52;6.50;;;;;;;15.99;46.69;103243.84;4420078;32;20137;-69
2021/12/18 07:06:49;;;;;;;16.70;7.68;;;;;;;16.18;46.34;103253.87;4421720;32;20479;-69
2021/12/18 07:09:14;;;;;;;16.75;7.18;;;;;;;15.92;46.68;103252.41;4420647;32;20060;-69
2021/12/18 07:11:40;;;;;;;22.37;8.90;;;;;;;16.09;46.49;103250.69;4420961;32;20047;-69
2021/12/18 07:14:06;;;;;;;19.85;8.15;;;;;;;16.06;46.63;103259.22;4420237;32;20492;-69
2021/12/18 07:16:31;;;;;;;19.00;7.97;;;;;;;16.06;46.70;103245.84;4420980;32;20094;-69
2021/12/18 07:18:57;;;;;;;19.50;8.82;;;;;;;16.14;46.51;103247.37;4421363;32;20410;-69
2021/12/18 07:21:23;;;;;;;18.95;8.45;;;;;;;16.08;46.33;103243.41;4415863;32;20136;-69
2021/12/18 07:23:49;;;;;;;22.08;9.70;;;;;;;16.11;46.45;103251.09;4421992;32;20077;-69
2021/12/18 07:26:14;;;;;;;21.10;9.32;;;;;;;16.10;46.31;103243.75;4421452;32;20087;-69
2021/12/18 07:28:40;;;;;;;24.27;9.57;;;;;;;16.08;46.19;103249.06;4420587;32;20045;-69
2021/12/18 07:31:06;;;;;;;24.20;9.90;;;;;;;16.22;46.29;103248.97;4422594;32;20415;-69
2021/12/18 07:33:32;;;;;;;21.10;9.07;;;;;;;16.19;46.15;103255.47;4421437;32;20025;-69
2021/12/18 07:35:59;;;;;;;24.87;9.55;;;;;;;16.05;46.54;103255.59;4424478;32;20201;-69
2021/12/18 07:38:25;;;;;;;20.98;9.60;;;;;;;16.10;46.55;103249.44;4420632;32;20022;-69
2021/12/18 07:40:51;;;;;;;23.85;9.82;;;;;;;16.19;46.39;103255.47;4417741;32;20094;-69
2021/12/18 07:43:16;;;;;;;24.70;9.75;;;;;;;16.15;46.36;103256.72;4418913;32;20093;-69
2021/12/18 07:45:44;;;;;;;28.00;9.23;;;;;;;16.10;46.72;103254.34;4421163;32;20069;-69
2021/12/18 07:48:09;;;;;;;24.75;9.77;;;;;;;16.14;46.39;103267.25;4420048;32;20187;-69
2021/12/18 07:50:35;;;;;;;21.45;9.48;;;;;;;16.20;46.36;103253.44;4418696;32;20498;-69
2021/12/18 07:53:01;;;;;;;23.27;9.57;;;;;;;16.26;46.05;103251.78;4419035;32;20072;-69
2021/12/18 07:55:28;;;;;;;21.60;10.05;;;;;;;16.08;46.15;103256.78;4422233;32;20149;-69
2021/12/18 07:57:54;;;;;;;24.15;9.60;;;;;;;16.27;45.60;103247.69;4421977;32;20417;-69
2021/12/18 08:00:21;;;;;;;26.58;9.70;;;;;;;16.38;45.88;103257.75;4417091;32;20537;-69
2021/12/18 08:02:48;;;;;;;20.25;8.52;;;;;;;16.40;45.60;103257.34;4420702;32;20091;-69
2021/12/18 08:05:14;;;;;;;20.75;8.45;;;;;;;15.98;46.19;103253.59;4420950;32;20550;-69
2021/12/18 08:07:41;;;;;;;16.85;7.85;;;;;;;15.96;46.16;103255.25;4421380;32;20045;-69
2021/12/18 08:10:07;;;;;;;19.73;7.35;;;;;;;16.03;45.73;103252.34;4422747;32;20077;-69
2021/12/18 08:12:33;;;;;;;13.60;6.78;;;;;;;16.08;46.01;103251.09;4422023;32;20045;-69
2021/12/18 08:14:59;;;;;;;15.88;6.82;;;;;;;15.69;46.05;103251.34;4423546;32;20142;-69
2021/12/18 08:17:25;;;;;;;20.85;7.60;;;;;;;16.02;46.05;103250.75;4422924;32;20034;-69
2021/12/18 08:19:51;;;;;;;19.95;7.90;;;;;;;16.10;46.28;103252.28;4423225;32;20128;-68
2021/12/18 08:22:17;;;;;;;18.67;8.25;;;;;;;16.13;45.85;103259.19;4424586;32;20336;-69
2021/12/18 08:24:43;;;;;;;20.85;7.10;;;;;;;16.29;46.09;103256.63;4424706;32;20374;-69
2021/12/18 08:27:09;;;;;;;17.92;7.40;;;;;;;16.19;45.79;103257.50;4422117;32;20491;-69
2021/12/18 08:29:35;;;;;;;19.40;7.57;;;;;;;16.04;46.11;103259.63;4422044;32;20030;-68
2021/12/18 08:32:01;;;;;;;19.33;6.60;;;;;;;16.27;45.98;103259.06;4426148;32;20467;-69
2021/12/18 08:34:27;;;;;;;16.50;6.75;;;;;;;16.34;45.85;103259.00;4421319;32;20042;-69
2021/12/18 08:36:53;;;;;;;18.00;7.37;;;;;;;16.35;45.87;103258.59;4421277;32;20056;-69
2021/12/18 08:39:18;;;;;;;19.67;7.30;;;;;;;16.37;45.92;103263.84;4420278;32;20459;-69
2021/12/18 08:41:45;;;;;;;19.58;7.05;;;;;;;16.30;46.05;103267.59;4423905;32;20037;-69
2021/12/18 08:44:12;;;;;;;18.40;7.20;;;;;;;16.55;45.99;103262.53;4423062;32;20466;-69
2021/12/18 08:46:38;;;;;;;16.10;7.07;;;;;;;16.52;45.70;103254.84;4423829;32;20034;-69
2021/12/18 08:49:04;;;;;;;15.00;6.70;;;;;;;16.44;45.66;103258.16;4426515;32;20049;-69
2021/12/18 08:51:30;;;;;;;15.70;6.78;;;;;;;16.59;45.45;103263.31;4421121;32;20561;-69
2021/12/18 08:53:56;;;;;;;20.10;6.65;;;;;;;16.51;45.46;103261.72;4420732;32;20448;-69
2021/12/18 08:56:23;;;;;;;16.27;6.22;;;;;;;16.58;45.39;103267.37;4421735;32;20100;-69
2021/12/18 08:58:51;;;;;;;6.60;3.42;;;;;;;16.50;45.19;103265.03;4424415;32;20092;-69
2021/12/18 09:01:17;;;;;;;11.07;5.18;;;;;;;16.48;45.05;103256.09;4422389;32;20038;-69
2021/12/18 09:03:43;;;;;;;10.27;3.70;;;;;;;16.26;44.64;103261.09;4422000;32;20085;-69
2021/12/18 09:06:09;;;;;;;12.80;3.97;;;;;;;16.22;44.43;103260.31;4418838;32;20435;-69
2021/12/18 09:08:35;;;;;;;12.37;4.97;;;;;;;16.38;45.03;103265.50;4421347;32;20056;-69
2021/12/18 09:11:01;;;;;;;10.43;5.03;;;;;;;16.38;45.26;103266.28;4422980;32;20138;-69
2021/12/18 09:13:27;;;;;;;10.00;4.07;;;;;;;16.49;45.25;103252.00;4423076;32;20033;-69
2021/12/18 09:15:53;;;;;;;6.15;3.40;;;;;;;16.53;45.22;103267.00;4425209;32;20042;-69
2021/12/18 09:18:19;;;;;;;5.93;2.70;;;;;;;16.65;44.76;103261.63;4421252;32;20111;-69
2021/12/18 09:20:46;;;;;;;6.87;3.33;;;;;;;16.50;44.50;103262.97;4419696;32;20057;-69
2021/12/18 09:23:16;;;;;;;8.30;2.87;;;;;;;16.50;44.85;103259.34;4421329;32;20070;-68
2021/12/18 09:25:43;;;;;;;6.45;3.25;;;;;;;16.56;44.51;103255.59;4422663;32;20067;-68
2021/12/18 09:28:08;;;;;;;8.25;3.17;;;;;;;16.51;44.41;103249.56;4422229;32;20125;-69
2021/12/18 09:30:35;;;;;;;7.12;3.40;;;;;;;16.58;44.37;103258.84;4422223;32;20108;-70
2021/12/18 09:33:01;;;;;;;7.55;3.72;;;;;;;16.64;44.26;103256.34;4424127;32;20063;-69
2021/12/18 09:35:27;;;;;;;7.30;4.07;;;;;;;16.64;43.94;103256.34;4421974;32;20033;-68
2021/12/18 09:37:53;;;;;;;7.37;3.72;;;;;;;16.77;44.12;103257.44;4423228;32;20105;-68
2021/12/18 09:40:19;;;;;;;7.85;4.07;;;;;;;16.73;44.20;103246.13;4423247;32;20116;-68
2021/12/18 09:42:47;;;;;;;10.20;5.10;;;;;;;16.84;44.17;103252.50;4422660;32;20026;-68
2021/12/18 09:45:14;;;;;;;9.35;5.15;;;;;;;16.87;44.89;103257.34;4417849;32;20045;-68
2021/12/18 09:47:41;;;;;;;14.02;5.45;;;;;;;16.99;44.54;103256.00;4422000;32;20056;-68
2021/12/18 09:50:07;;;;;;;7.05;3.80;;;;;;;16.79;44.76;103258.66;4423430;32;20084;-68
2021/12/18 09:52:35;;;;;;;9.00;4.47;;;;;;;16.79;44.16;103270.03;4421800;32;20085;-69
2021/12/18 09:55:05;;;;;;;7.20;3.95;;;;;;;16.63;44.32;103266.13;4421735;32;20778;-68
2021/12/18 09:57:31;;;;;;;9.82;5.30;;;;;;;16.97;44.35;103267.78;4420614;32;20036;-68
2021/12/18 09:59:56;;;;;;;10.60;5.35;;;;;;;16.82;44.82;103272.03;4423996;32;20056;-68
2021/12/18 10:02:22;;;;;;;12.00;6.20;;;;;;;16.93;44.49;103263.38;4417428;32;20077;-68
2021/12/18 10:04:48;;;;;;;11.12;5.25;;;;;;;16.88;44.82;103252.47;4422717;32;20053;-68
2021/12/18 10:09:57;;;;;;;13.07;6.60;;;;;;;17.70;43.29;103271.84;3977478;32;15023269;-69
2021/12/18 10:12:26;;;;;;;13.25;6.50;;;;;;;17.70;43.29;103271.84;4433806;32;20139;-69
2021/12/18 10:17:36;;;;;;;14.75;6.72;;;;;;;17.83;42.94;103267.19;3985487;32;15029682;-69
2021/12/18 10:22:56;;;;;;;12.05;6.72;;;;;;;17.87;42.68;103267.97;3979659;32;15035059;-69
2021/12/18 10:25:26;;;;;;;16.20;7.57;;;;;;;17.87;42.68;103267.97;4435725;32;20076;-69
2021/12/18 10:28:03;;;;;;;14.20;7.12;;;;;;;17.33;43.45;103263.34;4438217;32;20217;-69
2021/12/18 10:30:29;;;;;;;11.93;6.20;;;;;;;17.60;43.14;103257.75;4433486;32;20080;-69
2021/12/18 10:35:38;;;;;;;13.15;5.65;;;;;;;17.63;43.29;103259.72;3980058;32;15026808;-69
2021/12/18 10:38:05;;;;;;;13.43;5.72;;;;;;;17.66;43.01;103259.69;4437114;32;20063;-69
2021/12/18 10:40:47;;;;;;;11.57;5.25;;;;;;;17.37;42.85;103260.44;4437941;32;20090;-69
2021/12/18 10:43:15;;;;;;;8.35;5.00;;;;;;;17.66;43.09;103256.03;4437367;32;20190;-69
2021/12/18 10:45:40;;;;;;;13.70;6.97;;;;;;;17.55;43.40;103255.38;4439335;32;20041;-69
2021/12/18 10:48:08;;;;;;;12.73;7.37;;;;;;;17.41;43.26;103255.50;4435909;32;20336;-69
2021/12/18 10:53:15;;;;;;;11.43;5.43;;;;;;;17.91;42.71;103252.84;3981793;32;15030898;-69
2021/12/18 10:56:01;;;;;;;9.90;5.50;;;;;;;17.91;42.71;103252.84;4432896;32;20052;-69
2021/12/18 10:58:32;;;;;;;11.10;5.97;;;;;;;17.82;42.45;103241.97;4432138;32;20057;-69
2021/12/18 11:14:18;;;;;;;8.88;5.75;;;;;;;18.04;42.37;103226.16;3978467;31;15707331;-69
2021/12/18 11:16:48;;;;;;;13.68;7.70;;;;;;;18.04;42.37;103226.16;4461205;32;20484;-69
2021/12/18 11:19:17;;;;;;;9.23;5.40;;;;;;;17.59;43.04;103224.81;4455120;32;20532;-68
2021/12/18 11:21:52;;;;;;;12.48;7.05;;;;;;;17.76;42.57;103218.84;4457520;32;20477;-70
2021/12/18 11:24:20;;;;;;;12.07;6.35;;;;;;;17.77;42.63;103217.63;4457282;32;20106;-69
2021/12/18 11:29:28;;;;;;;11.77;6.62;;;;;;;18.16;41.69;103219.87;3976087;31;15707656;-68
2021/12/18 11:31:55;;;;;;;13.93;6.87;;;;;;;18.16;41.69;103219.87;4452940;32;20414;-69
2021/12/18 11:34:21;;;;;;;10.35;6.28;;;;;;;17.60;42.64;103215.84;4452242;32;20071;-69
2021/12/18 11:36:50;;;;;;;18.00;7.32;;;;;;;17.44;43.13;103212.00;4449505;32;20118;-69
2021/12/18 11:39:19;;;;;;;9.77;5.97;;;;;;;17.83;42.63;103212.25;4447383;32;20366;-68
2021/12/18 11:41:48;;;;;;;13.57;6.68;;;;;;;17.73;42.84;103214.00;4452027;32;20464;-68
2021/12/18 11:53:03;;;;;;;16.37;8.77;;;;;;;18.47;41.86;103221.41;3982542;32;15022304;-69
2021/12/18 11:55:34;;;;;;;15.10;7.45;;;;;;;18.47;41.86;103221.41;4439167;32;20536;-69
2021/12/18 11:58:03;;;;;;;15.20;8.75;;;;;;;18.05;42.33;103209.87;4439670;32;20013;-69
2021/12/18 12:03:37;;;;;;;22.30;9.68;;;;;;;18.21;42.17;103212.87;3995713;31;15068530;-69
2021/12/18 12:06:21;;;;;;;24.17;10.73;;;;;;;18.20;42.36;103205.56;4452778;32;20155;-69
2021/12/18 12:08:50;;;;;;;20.08;10.25;;;;;;;18.24;42.48;103204.28;4453515;32;20378;-69
2021/12/18 12:19:39;;;;;;;18.90;11.52;;;;;;;18.37;42.04;103204.47;3979160;32;15022788;-69
2021/12/18 12:22:07;;;;;;;17.67;9.88;;;;;;;18.37;42.04;103204.47;4425515;32;20090;-69
2021/12/18 12:24:54;;;;;;;21.02;10.75;;;;;;;18.17;42.38;103200.72;4428459;32;20252;-69
2021/12/18 12:27:42;;;;;;;19.62;10.25;;;;;;;18.20;42.55;103192.13;4429079;32;20045;-69
2021/12/18 12:30:25;;;;;;;16.92;9.10;;;;;;;18.39;41.81;103190.59;4426489;32;20309;-69
2021/12/18 12:32:56;;;;;;;21.15;10.43;;;;;;;18.28;41.81;103189.97;4431053;32;20220;-69
2021/12/18 12:35:22;;;;;;;17.33;9.15;;;;;;;18.16;42.37;103182.03;4428511;32;20089;-69
2021/12/18 12:37:49;;;;;;;20.40;10.02;;;;;;;17.91;42.31;103187.31;4428119;32;20423;-69
2021/12/18 12:40:35;;;;;;;25.42;11.75;;;;;;;18.03;42.20;103183.84;4426823;32;20049;-69
2021/12/18 12:43:21;;;;;;;27.98;12.20;;;;;;;18.27;41.70;103177.75;4430682;32;20069;-69
2021/12/18 12:45:50;;;;;;;27.30;11.88;;;;;;;18.28;41.65;103179.34;4429986;32;20033;-69
2021/12/18 12:48:17;;;;;;;19.80;10.45;;;;;;;18.14;42.51;103181.63;4430272;32;20122;-69